Time;durP1;ratioP1;P1;durP2;ratioP2;P2;SDS_P1;SDS_P2;PMS_P1;PMS_P2;Temp;Humidity;BMP_temperature;BMP_pressure;BME280_temperature;BME280_humidity;BME280_pressure;Samples;Min_cycle;Max_cycle;Signal;HPM_P1;HPM_P2
2023/05/01 00:00:40;;;;;;;3.20;2.13;;;;;;;5.55;45.88;101982.72;4998913;28;20688;-67
2023/05/01 00:03:05;;;;;;;3.35;2.05;;;;;;;5.54;45.63;101978.38;5018398;28;20599;-69
2023/05/01 00:05:31;;;;;;;5.75;2.17;;;;;;;5.51;45.89;101972.34;5020897;28;20468;-67
2023/05/01 00:07:56;;;;;;;6.63;2.20;;;;;;;5.45;46.11;101968.00;5020907;28;20575;-70
2023/05/01 00:10:22;;;;;;;5.43;2.40;;;;;;;5.42;46.47;101963.69;5020618;28;20068;-71
2023/05/01 00:12:47;;;;;;;4.38;2.38;;;;;;;5.40;46.59;101967.16;5019427;28;20048;-70
2023/05/01 00:15:13;;;;;;;9.93;2.22;;;;;;;5.38;46.38;101961.13;5021819;28;20021;-70
2023/05/01 00:17:38;;;;;;;8.32;2.80;;;;;;;5.36;46.14;101957.66;5015380;28;20188;-69
2023/05/01 00:20:04;;;;;;;8.30;2.80;;;;;;;5.38;46.86;101953.34;5023546;28;20223;-74
2023/05/01 00:22:30;;;;;;;6.97;3.15;;;;;;;5.36;46.62;101950.72;5020245;28;20612;-73
2023/05/01 00:24:55;;;;;;;4.53;2.80;;;;;;;5.37;46.86;101949.88;5021397;28;20378;-72
2023/05/01 00:27:20;;;;;;;6.72;2.90;;;;;;;5.33;46.72;101955.09;5019984;28;20232;-70
2023/05/01 00:29:46;;;;;;;6.38;2.85;;;;;;;5.29;46.92;101951.63;5015413;28;20052;-73
2023/05/01 00:32:11;;;;;;;5.55;2.20;;;;;;;5.30;46.92;101944.69;5019174;28;20044;-72
2023/05/01 00:34:37;;;;;;;4.32;2.72;;;;;;;5.30;46.67;101947.28;5017880;28;20033;-72
2023/05/01 00:37:02;;;;;;;9.13;2.70;;;;;;;5.21;46.99;101943.84;5022114;28;20388;-69
2023/05/01 00:39:28;;;;;;;4.63;2.90;;;;;;;5.22;47.00;101940.38;5020484;28;20147;-71
2023/05/01 00:41:54;;;;;;;6.22;1.88;;;;;;;5.17;47.50;101936.94;5015935;28;21518;-71
2023/05/01 00:44:20;;;;;;;5.13;1.92;;;;;;;5.15;47.62;101935.22;5010758;28;20037;-72
2023/05/01 00:46:45;;;;;;;5.63;2.80;;;;;;;5.16;47.17;101932.59;5018234;28;20045;-71
2023/05/01 00:49:11;;;;;;;7.85;3.13;;;;;;;5.15;47.47;101928.31;5019323;28;20029;-72
2023/05/01 00:51:36;;;;;;;6.68;2.45;;;;;;;5.17;48.15;101920.53;5000343;28;20585;-72
2023/05/01 00:54:02;;;;;;;5.40;2.70;;;;;;;5.13;47.89;101914.47;5021798;28;20227;-72
2023/05/01 00:56:31;;;;;;;5.22;3.03;;;;;;;5.11;48.26;101911.03;5019792;28;20143;-72
2023/05/01 00:58:56;;;;;;;7.35;3.30;;;;;;;5.17;47.68;101910.16;5017610;28;20111;-72
2023/05/01 01:01:22;;;;;;;5.18;2.53;;;;;;;5.14;48.49;101911.00;5018643;28;20065;-71
2023/05/01 01:03:50;;;;;;;8.40;2.47;;;;;;;5.07;48.42;101909.28;5019331;28;20036;-71
2023/05/01 01:06:32;;;;;;;3.65;2.42;;;;;;;5.05;48.48;101906.69;5017190;28;20458;-71
2023/05/01 01:08:58;;;;;;;;;;;;;;;5.14;48.38;101900.63;5019601;28;20127;-70
2023/05/01 01:11:33;;;;;;;3.40;1.70;;;;;;;5.19;48.38;101898.94;5014601;28;19931;-72
2023/05/01 01:14:23;;;;;;;5.40;2.40;;;;;;;5.28;47.89;101895.47;4998731;28;20056;-71
2023/05/01 01:17:02;;;;;;;7.72;3.13;;;;;;;5.17;48.53;101890.28;4994531;28;20188;-71
2023/05/01 01:19:50;;;;;;;7.60;2.20;;;;;;;5.05;48.31;101892.88;4991908;28;20637;-71
2023/05/01 01:22:24;;;;;;;9.48;3.53;;;;;;;4.88;48.76;101886.81;4999107;28;20097;-69
2023/05/01 01:25:21;;;;;;;5.28;2.47;;;;;;;4.86;48.65;101881.63;4990087;28;20601;-70
2023/05/01 01:28:02;;;;;;;6.22;2.53;;;;;;;4.83;48.63;101874.72;4993658;28;20040;-70
2023/05/01 01:30:57;;;;;;;7.63;2.97;;;;;;;4.70;49.26;101877.28;5019923;28;20536;-70
2023/05/01 01:33:22;;;;;;;6.32;2.80;;;;;;;4.70;49.54;101866.94;5017151;28;20059;-70
2023/05/01 01:36:06;;;;;;;3.80;2.42;;;;;;;4.72;49.89;101868.69;5018150;28;20033;-70
2023/05/01 01:38:57;;;;;;;7.60;3.20;;;;;;;4.69;49.93;101868.66;4992728;28;20038;-70
2023/05/01 01:41:29;;;;;;;4.90;2.92;;;;;;;4.68;50.48;101859.19;4999247;28;20293;-71
2023/05/01 01:44:01;;;;;;;10.13;3.85;;;;;;;4.73;50.64;101857.44;4984480;28;20044;-72
2023/05/01 01:46:27;;;;;;;10.38;3.45;;;;;;;4.79;50.35;101857.47;5002500;28;20049;-71
2023/05/01 01:48:56;;;;;;;9.48;3.50;;;;;;;4.76;50.51;101854.84;4998585;28;20040;-71
2023/05/01 01:51:25;;;;;;;9.88;3.60;;;;;;;4.84;50.07;101847.09;5000881;28;20049;-71
2023/05/01 01:53:55;;;;;;;8.18;3.83;;;;;;;4.75;50.02;101850.53;5000180;28;20037;-71
2023/05/01 01:56:24;;;;;;;7.45;3.53;;;;;;;4.68;50.41;101838.47;4984085;28;20122;-68
2023/05/01 01:58:51;;;;;;;9.82;4.05;;;;;;;4.69;50.72;101832.41;4996191;28;20037;-67
2023/05/01 02:01:19;;;;;;;9.63;4.03;;;;;;;4.69;50.29;101829.81;5002832;28;20037;-68
2023/05/01 02:03:46;;;;;;;10.75;4.75;;;;;;;4.58;50.73;101826.38;5001446;28;20049;-68
2023/05/01 02:06:13;;;;;;;12.18;4.35;;;;;;;4.59;51.04;101825.53;5001292;28;20353;-70
2023/05/01 02:08:43;;;;;;;11.77;4.47;;;;;;;4.58;51.10;101824.63;4998134;28;20041;-69
2023/05/01 02:11:12;;;;;;;9.73;4.75;;;;;;;4.63;50.62;101815.16;5006971;28;20033;-69
2023/05/01 02:13:39;;;;;;;12.18;4.72;;;;;;;4.61;50.64;101822.06;5018164;28;20471;-69
2023/05/01 02:16:07;;;;;;;11.50;4.80;;;;;;;4.60;50.90;101812.56;4997898;28;20033;-69
2023/05/01 02:18:34;;;;;;;14.45;4.45;;;;;;;4.52;50.94;101810.81;5005127;28;20045;-71
2023/05/01 02:21:01;;;;;;;12.10;4.10;;;;;;;4.50;51.12;101812.53;5003625;28;20123;-72
2023/05/01 02:23:28;;;;;;;8.43;4.75;;;;;;;4.46;51.00;101810.84;5005915;28;20034;-72
2023/05/01 02:25:56;;;;;;;13.73;5.57;;;;;;;4.45;51.07;101804.78;5015326;28;20728;-73
2023/05/01 02:28:23;;;;;;;10.27;5.53;;;;;;;4.45;51.32;101801.34;5005767;28;20052;-71
2023/05/01 02:30:49;;;;;;;11.57;4.93;;;;;;;4.43;51.30;101806.50;5019848;28;20043;-71
2023/05/01 02:33:14;;;;;;;10.77;4.57;;;;;;;4.48;51.07;101803.94;5005518;28;20033;-71
2023/05/01 02:35:46;;;;;;;8.60;3.63;;;;;;;4.62;50.80;101803.06;5005274;28;20546;-71
2023/05/01 02:38:14;;;;;;;8.18;4.80;;;;;;;4.67;50.38;101795.28;5008447;28;20038;-69
2023/05/01 02:40:44;;;;;;;5.32;4.00;;;;;;;4.64;50.46;101795.31;5005592;28;20126;-69
2023/05/01 02:43:12;;;;;;;12.98;5.88;;;;;;;4.57;50.48;101791.84;5002563;28;20508;-69
2023/05/01 02:45:40;;;;;;;11.43;5.28;;;;;;;4.46;50.80;101792.72;5023802;28;20037;-69
2023/05/01 02:48:09;;;;;;;11.38;4.75;;;;;;;4.33;50.66;101784.94;4998228;28;20072;-69
2023/05/01 02:50:42;;;;;;;11.43;4.30;;;;;;;4.37;50.73;101791.84;5003947;28;20072;-69
2023/05/01 02:53:08;;;;;;;11.05;4.68;;;;;;;4.29;50.80;101778.03;5014817;28;20145;-69
2023/05/01 02:55:44;;;;;;;8.82;4.75;;;;;;;4.28;51.03;101778.91;5008148;28;20159;-68
2023/05/01 02:58:20;;;;;;;6.88;4.85;;;;;;;4.22;51.13;101776.31;5024593;28;20123;-68
2023/05/01 03:00:48;;;;;;;10.55;5.85;;;;;;;4.19;51.30;101768.56;5040110;28;20063;-68
2023/05/01 03:03:14;;;;;;;8.93;5.78;;;;;;;4.17;51.39;101763.38;5004810;28;20037;-67
2023/05/01 03:05:40;;;;;;;10.85;6.32;;;;;;;4.19;51.36;101760.78;4994064;28;20037;-76
2023/05/01 03:08:08;;;;;;;14.60;6.47;;;;;;;4.16;51.33;101758.19;5014169;28;22050;-79
2023/05/01 03:10:34;;;;;;;14.98;7.43;;;;;;;4.17;51.61;101759.91;5034401;28;21775;-72
2023/05/01 03:13:00;;;;;;;15.40;7.50;;;;;;;4.17;51.54;101757.34;5006382;28;20044;-73
2023/05/01 03:15:26;;;;;;;16.38;7.47;;;;;;;4.22;51.59;101751.28;5003876;28;20508;-73
2023/05/01 03:17:52;;;;;;;18.45;8.68;;;;;;;4.30;51.51;101743.53;5000472;28;20083;-72
2023/05/01 03:20:17;;;;;;;17.30;7.63;;;;;;;4.28;51.39;101747.84;5024402;28;20620;-73
2023/05/01 03:22:43;;;;;;;17.13;8.50;;;;;;;4.27;51.46;101748.69;5021002;28;20048;-72
2023/05/01 03:25:08;;;;;;;12.30;7.70;;;;;;;4.37;51.07;101739.22;5020450;28;21141;-72
2023/05/01 03:27:35;;;;;;;13.13;6.70;;;;;;;4.35;50.85;101733.19;5018389;28;20779;-69
2023/05/01 03:30:00;;;;;;;17.58;7.55;;;;;;;4.30;50.88;101738.38;5004985;28;20258;-73
2023/05/01 03:32:28;;;;;;;12.18;6.20;;;;;;;4.23;51.00;101734.06;5002205;28;20425;-73
2023/05/01 03:34:54;;;;;;;11.52;6.80;;;;;;;4.20;51.06;101727.13;5004338;28;20082;-73
2023/05/01 03:37:20;;;;;;;19.15;10.60;;;;;;;4.20;51.14;101721.09;5019863;28;20509;-72
2023/05/01 03:39:46;;;;;;;23.13;13.18;;;;;;;4.23;50.80;101721.13;5022141;28;20080;-72
2023/05/01 03:42:41;;;;;;;27.10;14.45;;;;;;;4.24;50.65;101721.97;5020491;28;20053;-70
2023/05/01 03:45:17;;;;;;;27.73;14.35;;;;;;;4.19;50.96;101714.22;5006213;28;20041;-69
2023/05/01 03:47:42;;;;;;;25.55;12.48;;;;;;;4.16;50.89;101704.72;5019376;28;20561;-73
2023/05/01 03:50:08;;;;;;;20.33;10.77;;;;;;;4.14;51.08;101700.38;5021702;28;20086;-73
2023/05/01 03:52:36;;;;;;;21.73;9.82;;;;;;;4.10;50.85;101704.72;5018354;28;20072;-73
2023/05/01 03:55:01;;;;;;;20.75;11.05;;;;;;;4.09;50.98;101699.53;5006846;28;20032;-72
2023/05/01 03:57:40;;;;;;;22.13;9.85;;;;;;;4.08;50.62;101697.81;5015715;28;20379;-75
2023/05/01 04:00:06;;;;;;;13.60;8.20;;;;;;;4.02;50.85;101702.09;5021263;28;20025;-74
2023/05/01 04:02:41;;;;;;;13.68;8.73;;;;;;;4.02;50.80;101696.94;5021710;28;20037;-76
2023/05/01 04:05:08;;;;;;;17.45;8.07;;;;;;;4.00;51.09;101698.66;5024406;28;20126;-73
2023/05/01 04:07:34;;;;;;;14.27;9.00;;;;;;;4.01;50.62;101695.22;5014862;28;20641;-71
2023/05/01 04:09:59;;;;;;;18.23;6.85;;;;;;;3.98;51.00;101708.16;4995884;28;20100;-73
2023/05/01 04:12:25;;;;;;;16.20;8.43;;;;;;;3.99;50.74;101694.34;5000905;28;20049;-73
2023/05/01 04:14:50;;;;;;;18.80;8.35;;;;;;;4.06;50.66;101691.78;5003989;28;20484;-73
2023/05/01 04:17:16;;;;;;;17.52;7.78;;;;;;;4.07;50.59;101696.09;4986368;28;20116;-72
2023/05/01 04:19:41;;;;;;;13.52;8.05;;;;;;;4.11;50.06;101695.22;5001144;28;20044;-72
2023/05/01 04:22:07;;;;;;;18.75;7.65;;;;;;;4.16;50.04;101693.50;4998996;28;20180;-75
2023/05/01 04:24:35;;;;;;;15.27;8.05;;;;;;;4.12;49.89;101694.34;5001245;28;20061;-74
2023/05/01 04:27:01;;;;;;;16.50;7.13;;;;;;;4.08;50.07;101682.31;5003170;28;20025;-74
2023/05/01 04:29:26;;;;;;;15.15;7.80;;;;;;;4.11;50.08;101684.88;5014295;28;20044;-77
2023/05/01 04:31:52;;;;;;;15.93;8.02;;;;;;;4.17;50.00;101680.56;4982009;28;22476;-76
2023/05/01 04:34:18;;;;;;;20.58;8.02;;;;;;;4.16;50.01;101684.03;5001406;28;20041;-77
2023/05/01 04:36:44;;;;;;;15.23;7.30;;;;;;;4.15;49.95;101689.19;4985873;28;20099;-77
2023/05/01 04:39:09;;;;;;;21.73;8.23;;;;;;;4.18;50.06;101686.59;4986173;28;20041;-77
2023/05/01 04:41:35;;;;;;;13.93;8.18;;;;;;;4.37;49.46;101687.47;4982984;28;20392;-78
2023/05/01 04:44:03;;;;;;;14.02;6.90;;;;;;;4.35;49.06;101684.88;4998281;28;20116;-75
2023/05/01 04:46:28;;;;;;;15.98;7.97;;;;;;;4.39;49.07;101680.56;4998752;28;20389;-75
2023/05/01 04:48:54;;;;;;;17.08;6.70;;;;;;;4.48;48.96;101680.53;4984205;28;20041;-75
2023/05/01 04:51:20;;;;;;;13.18;7.43;;;;;;;4.60;48.61;101680.50;4983142;28;20490;-74
2023/05/01 04:53:46;;;;;;;18.10;7.47;;;;;;;4.64;48.47;101671.88;4997983;28;20579;-75
2023/05/01 04:56:24;;;;;;;10.88;6.82;;;;;;;4.79;48.33;101670.13;5002613;28;20121;-77
2023/05/01 04:58:54;;;;;;;14.10;7.20;;;;;;;4.90;47.99;101667.50;4999541;28;20099;-75
2023/05/01 05:01:22;;;;;;;14.18;7.20;;;;;;;4.98;47.43;101671.78;4996775;28;20044;-75
2023/05/01 05:03:48;;;;;;;14.80;7.00;;;;;;;5.19;46.85;101669.97;4994763;28;20073;-72
2023/05/01 05:06:13;;;;;;;10.88;6.63;;;;;;;5.50;46.14;101670.66;4998658;28;20048;-74
2023/05/01 05:08:39;;;;;;;14.00;7.32;;;;;;;5.94;45.58;101672.09;4983738;28;20120;-72
2023/05/01 05:11:07;;;;;;;15.07;7.03;;;;;;;6.46;44.45;101666.50;4997798;28;20041;-70
2023/05/01 05:13:46;;;;;;;14.07;6.40;;;;;;;6.50;43.55;101662.94;4997303;28;20049;-70
2023/05/01 05:16:13;;;;;;;16.58;6.80;;;;;;;6.85;43.20;101666.91;4996555;28;20033;-69
2023/05/01 05:18:38;;;;;;;14.68;6.60;;;;;;;7.22;42.81;101663.88;4987556;28;20501;-67
2023/05/01 05:21:05;;;;;;;10.65;6.90;;;;;;;7.25;41.72;101658.63;4981193;28;20065;-69
2023/05/01 05:23:31;;;;;;;18.42;6.30;;;;;;;7.06;41.62;101657.13;4992376;28;20524;-70
2023/05/01 05:26:00;;;;;;;10.43;6.00;;;;;;;6.82;42.77;101664.38;4998864;28;20029;-70
2023/05/01 05:28:27;;;;;;;11.98;6.43;;;;;;;6.86;42.11;101659.97;4994713;28;20035;-70
2023/05/01 05:30:54;;;;;;;9.32;5.95;;;;;;;7.25;41.73;101652.56;4982515;28;20041;-68
2023/05/01 05:33:20;;;;;;;12.57;5.30;;;;;;;7.64;41.49;101656.34;5003002;28;20161;-66
2023/05/01 05:35:45;;;;;;;10.68;5.55;;;;;;;7.88;39.78;101654.25;4971571;28;20336;-69
2023/05/01 05:38:12;;;;;;;14.80;5.82;;;;;;;8.98;38.42;101647.03;5003582;28;20032;-69
2023/05/01 05:40:40;;;;;;;11.05;6.35;;;;;;;11.09;34.64;101641.75;5014445;28;20258;-68
2023/05/01 05:43:15;;;;;;;9.55;5.45;;;;;;;12.50;31.88;101638.88;5018467;28;20033;-70
2023/05/01 05:45:41;;;;;;;8.55;5.10;;;;;;;13.44;30.21;101632.75;4994900;28;20028;-69
2023/05/01 05:48:06;;;;;;;9.45;4.10;;;;;;;13.61;29.47;101634.72;5013948;28;20448;-70
2023/05/01 05:50:36;;;;;;;7.72;4.85;;;;;;;13.46;29.57;101631.75;5014590;28;20120;-70
2023/05/01 05:53:02;;;;;;;9.70;4.85;;;;;;;13.60;28.46;101635.63;5017899;28;20043;-69
2023/05/01 05:55:28;;;;;;;6.90;3.90;;;;;;;13.30;30.47;101628.91;5016179;28;20048;-71
2023/05/01 05:58:03;;;;;;;8.77;5.35;;;;;;;13.98;28.38;101630.56;5003704;28;20033;-69
2023/05/01 06:00:29;;;;;;;9.73;5.10;;;;;;;14.37;27.20;101628.00;5004025;28;20044;-68
2023/05/01 06:02:57;;;;;;;10.15;4.75;;;;;;;13.61;28.23;101626.84;4998100;28;20041;-68
2023/05/01 06:05:26;;;;;;;12.88;4.82;;;;;;;13.07;29.01;101619.31;5014508;28;20148;-69
2023/05/01 06:07:53;;;;;;;9.07;4.38;;;;;;;13.59;28.63;101616.41;5031592;28;20037;-69
2023/05/01 06:10:20;;;;;;;9.90;4.50;;;;;;;14.73;27.44;101616.75;5012759;28;20048;-69
2023/05/01 06:12:46;;;;;;;11.55;4.70;;;;;;;15.52;26.04;101612.13;5005520;28;20597;-69
2023/05/01 06:15:15;;;;;;;5.85;4.28;;;;;;;15.51;25.79;101610.44;4996062;28;20033;-69
2023/05/01 06:17:46;;;;;;;9.05;4.35;;;;;;;15.54;26.86;101612.91;4994024;28;20390;-70
2023/05/01 06:20:13;;;;;;;8.63;3.55;;;;;;;15.59;26.25;101605.66;4981439;28;20053;-69
2023/05/01 06:22:39;;;;;;;9.60;3.83;;;;;;;15.62;27.15;101609.91;4996745;28;20140;-69
2023/05/01 06:25:16;;;;;;;7.00;3.88;;;;;;;16.50;25.78;101600.16;4992647;28;20025;-70
2023/05/01 06:27:42;;;;;;;5.47;3.35;;;;;;;17.59;24.53;101605.53;4995637;28;20900;-69
2023/05/01 06:30:09;;;;;;;9.70;3.17;;;;;;;17.05;24.58;101605.09;4995044;28;20041;-69
2023/05/01 06:32:38;;;;;;;7.63;3.10;;;;;;;16.89;24.28;101601.56;4992152;28;20055;-68
2023/05/01 06:35:04;;;;;;;8.75;3.50;;;;;;;17.58;23.14;101609.13;4999833;28;20579;-69
2023/05/01 06:37:29;;;;;;;6.25;3.20;;;;;;;17.54;23.11;101599.66;4994137;28;20041;-69
2023/05/01 06:39:55;;;;;;;4.65;3.00;;;;;;;18.16;22.44;101596.00;4998754;28;20446;-70
2023/05/01 06:42:21;;;;;;;5.35;3.22;;;;;;;17.86;22.58;101595.13;4992046;28;20049;-69
2023/05/01 06:44:46;;;;;;;6.82;2.80;;;;;;;17.27;23.43;101590.66;4996017;28;20040;-70
2023/05/01 06:47:12;;;;;;;7.20;3.47;;;;;;;17.22;23.08;101591.78;4995382;28;20037;-69
2023/05/01 06:49:39;;;;;;;8.20;3.80;;;;;;;17.21;23.15;101591.84;4993171;28;20803;-71
2023/05/01 06:52:07;;;;;;;5.00;3.20;;;;;;;18.16;21.96;101585.41;4980616;28;20056;-68
2023/05/01 06:54:33;;;;;;;9.07;2.97;;;;;;;18.12;22.01;101587.41;5004745;28;20636;-68
2023/05/01 06:56:58;;;;;;;10.40;3.13;;;;;;;18.31;22.31;101592.44;5003069;28;20021;-68
2023/05/01 06:59:24;;;;;;;7.78;2.90;;;;;;;19.02;21.08;101574.78;4981637;28;20744;-69
2023/05/01 07:01:49;;;;;;;5.00;2.45;;;;;;;19.77;20.32;101579.56;4999908;28;20040;-71
2023/05/01 07:04:15;;;;;;;5.43;3.00;;;;;;;19.99;21.16;101576.28;4998744;28;20029;-68
2023/05/01 07:06:41;;;;;;;5.57;2.67;;;;;;;19.67;20.70;101580.19;5000003;28;20033;-68
2023/05/01 07:09:06;;;;;;;9.07;3.35;;;;;;;21.21;19.21;101566.69;5002243;28;20052;-71
2023/05/01 07:11:32;;;;;;;7.07;3.10;;;;;;;21.53;18.88;101572.31;4997417;28;20269;-70
2023/05/01 07:13:58;;;;;;;7.78;2.90;;;;;;;21.53;18.66;101566.09;5000225;28;20150;-71
2023/05/01 07:16:23;;;;;;;4.32;2.38;;;;;;;21.03;18.82;101563.59;4997161;28;20095;-71
2023/05/01 07:18:49;;;;;;;6.30;3.20;;;;;;;21.01;19.87;101556.72;4988775;28;20438;-71
2023/05/01 07:21:15;;;;;;;7.15;3.00;;;;;;;20.77;19.53;101554.84;4999562;28;20037;-70
2023/05/01 07:23:40;;;;;;;5.65;2.20;;;;;;;20.47;20.62;101556.09;4999402;28;20135;-70
2023/05/01 07:26:06;;;;;;;5.90;2.08;;;;;;;20.65;19.28;101553.09;4997131;28;20044;-70
2023/05/01 07:28:32;;;;;;;4.82;2.50;;;;;;;19.77;20.77;101550.38;5009913;28;21464;-70
2023/05/01 07:30:57;;;;;;;5.25;2.42;;;;;;;20.91;19.16;101549.41;5001876;28;20717;-70
2023/05/01 07:33:25;;;;;;;6.28;3.00;;;;;;;20.17;19.99;101547.63;4998409;28;20157;-70
2023/05/01 07:35:51;;;;;;;4.65;2.38;;;;;;;20.25;20.17;101545.31;5002009;28;20575;-70
2023/05/01 07:38:17;;;;;;;7.30;2.83;;;;;;;20.16;20.67;101540.63;4999748;28;20045;-70
2023/05/01 07:40:42;;;;;;;6.85;2.42;;;;;;;20.79;19.88;101550.25;5000748;28;20033;-68
2023/05/01 07:43:11;;;;;;;9.27;2.95;;;;;;;21.06;19.02;101535.94;5002254;28;20087;-69
2023/05/01 07:45:41;;;;;;;3.45;2.33;;;;;;;21.32;18.91;101534.84;4989457;28;20034;-69
2023/05/01 07:48:07;;;;;;;2.85;2.55;;;;;;;21.63;19.32;101540.50;5001766;28;20052;-70
2023/05/01 07:50:33;;;;;;;6.05;2.47;;;;;;;21.18;19.47;101535.03;4991629;28;20068;-69
2023/05/01 07:52:59;;;;;;;4.95;2.33;;;;;;;21.94;19.21;101533.66;5002583;28;20045;-69
2023/05/01 07:55:24;;;;;;;3.00;1.95;;;;;;;21.39;20.58;101542.34;4997378;28;20030;-68
2023/05/01 07:57:50;;;;;;;3.28;2.25;;;;;;;20.26;21.06;101531.06;5000058;28;20041;-69
2023/05/01 08:00:16;;;;;;;7.13;2.92;;;;;;;20.58;20.75;101543.88;4998233;28;20029;-69
2023/05/01 08:02:42;;;;;;;5.70;2.65;;;;;;;18.95;22.49;101536.41;4991418;28;20042;-69
2023/05/01 08:05:08;;;;;;;6.38;2.88;;;;;;;18.11;23.84;101547.81;5001882;28;20061;-70
2023/05/01 08:07:34;;;;;;;9.43;2.83;;;;;;;19.12;22.92;101544.09;4994932;28;20593;-69
2023/05/01 08:09:59;;;;;;;5.50;3.15;;;;;;;19.95;21.99;101541.19;5003220;28;20033;-69
2023/05/01 08:12:25;;;;;;;4.40;2.80;;;;;;;20.24;21.08;101533.00;4997325;28;20096;-68
2023/05/01 08:14:52;;;;;;;8.50;2.72;;;;;;;20.29;21.03;101537.03;5001210;28;20082;-69
2023/05/01 08:17:17;;;;;;;6.50;2.40;;;;;;;20.92;20.50;101531.66;4999769;28;20049;-69
2023/05/01 08:19:44;;;;;;;2.92;2.33;;;;;;;21.31;20.41;101533.16;4985796;28;20033;-68
2023/05/01 08:22:10;;;;;;;8.13;3.53;;;;;;;21.84;20.85;101527.34;4998214;28;20045;-69
2023/05/01 08:24:36;;;;;;;5.70;2.50;;;;;;;21.67;19.47;101531.34;4993483;28;20070;-69
2023/05/01 08:27:02;;;;;;;5.78;2.10;;;;;;;22.58;19.41;101538.38;4998389;28;20030;-69
2023/05/01 08:29:27;;;;;;;6.13;2.25;;;;;;;21.25;20.11;101524.78;4997447;28;20045;-69
2023/05/01 08:31:55;;;;;;;4.32;2.10;;;;;;;21.43;20.30;101533.19;4995304;28;20052;-70
2023/05/01 08:34:21;;;;;;;4.57;2.35;;;;;;;22.60;18.74;101514.25;4997511;28;20037;-69
2023/05/01 08:36:47;;;;;;;5.72;2.00;;;;;;;23.29;18.60;101518.41;4997975;28;20033;-69
2023/05/01 08:39:14;;;;;;;5.93;2.55;;;;;;;22.70;18.91;101509.06;4988255;28;20112;-69
2023/05/01 08:41:43;;;;;;;3.55;1.90;;;;;;;23.20;19.44;101517.34;4996106;28;20630;-69
2023/05/01 08:44:10;;;;;;;4.45;2.40;;;;;;;24.10;17.21;101515.91;4995832;28;20041;-69
2023/05/01 08:46:43;;;;;;;3.20;2.30;;;;;;;23.69;17.20;101512.34;4991168;28;20091;-69
2023/05/01 08:49:13;;;;;;;10.73;2.30;;;;;;;22.56;18.85;101505.69;4998441;28;20049;-69
2023/05/01 08:51:48;;;;;;;4.90;1.92;;;;;;;23.78;18.70;101517.72;4994847;28;20584;-69
2023/05/01 08:54:15;;;;;;;5.65;1.90;;;;;;;23.30;18.83;101510.28;4979083;28;20045;-68
2023/05/01 08:56:43;;;;;;;3.45;1.70;;;;;;;22.71;18.28;101511.59;4994655;28;20026;-69
2023/05/01 08:59:10;;;;;;;4.93;1.50;;;;;;;22.66;17.78;101510.25;4999595;28;20037;-69
2023/05/01 09:01:37;;;;;;;4.50;1.70;;;;;;;22.12;19.26;101504.78;4977190;28;20932;-70
2023/05/01 09:04:03;;;;;;;4.07;1.83;;;;;;;21.21;20.32;101504.72;4999186;28;20529;-69
2023/05/01 09:06:31;;;;;;;4.25;1.70;;;;;;;19.75;21.42;101508.09;4995418;28;20064;-68
2023/05/01 09:08:57;;;;;;;6.68;1.67;;;;;;;19.73;21.33;101502.03;4999082;28;20067;-69
2023/05/01 09:11:24;;;;;;;5.60;1.88;;;;;;;19.40;22.04;101502.50;4994603;28;20041;-69
2023/05/01 09:13:51;;;;;;;4.35;1.60;;;;;;;18.84;23.37;101503.50;4996530;28;20038;-69
2023/05/01 09:16:17;;;;;;;4.95;1.95;;;;;;;18.59;23.10;101495.44;4995344;28;20238;-68
2023/05/01 09:18:44;;;;;;;3.15;1.70;;;;;;;18.59;23.17;101490.16;4995373;28;20773;-69
2023/05/01 09:21:11;;;;;;;2.53;1.40;;;;;;;19.11;22.63;101497.34;4996148;28;20494;-68
2023/05/01 09:23:37;;;;;;;4.47;1.58;;;;;;;18.56;23.57;101493.81;4991806;28;20041;-68
2023/05/01 09:26:04;;;;;;;3.05;1.08;;;;;;;18.36;22.87;101486.31;4999254;28;20486;-70
2023/05/01 09:28:41;;;;;;;3.90;1.67;;;;;;;18.50;23.31;101480.13;4994126;28;20053;-69
2023/05/01 09:31:24;;;;;;;4.20;1.58;;;;;;;18.14;23.47;101481.50;4998590;28;20182;-68
2023/05/01 09:33:54;;;;;;;3.70;1.55;;;;;;;18.48;23.73;101483.75;4996110;28;20092;-69
2023/05/01 09:36:22;;;;;;;1.90;1.30;;;;;;;18.43;25.21;101477.91;4997294;28;20514;-68
2023/05/01 09:38:50;;;;;;;4.05;1.83;;;;;;;19.01;22.99;101488.31;4995329;28;20037;-68
2023/05/01 09:41:16;;;;;;;3.20;1.40;;;;;;;18.35;23.76;101485.47;4998886;28;20037;-69
2023/05/01 09:43:48;;;;;;;4.63;0.93;;;;;;;18.58;23.24;101483.16;4994266;28;20061;-69
2023/05/01 09:46:14;;;;;;;3.33;1.10;;;;;;;18.20;21.81;101487.28;4999514;28;20442;-69
2023/05/01 09:48:41;;;;;;;4.60;0.88;;;;;;;19.71;20.66;101488.03;4993450;28;20075;-70
2023/05/01 09:51:25;;;;;;;5.65;1.35;;;;;;;19.79;20.06;101484.84;4998323;28;20056;-71
2023/05/01 09:53:54;;;;;;;5.57;0.93;;;;;;;20.54;20.71;101475.03;4992386;28;20671;-68
2023/05/01 09:56:20;;;;;;;1.70;0.80;;;;;;;20.25;20.18;101471.84;4996936;28;20690;-71
2023/05/01 09:58:48;;;;;;;2.67;1.13;;;;;;;21.36;18.57;101479.63;4997514;28;20041;-71
2023/05/01 10:01:15;;;;;;;3.90;0.93;;;;;;;21.27;16.94;101478.53;5000138;28;20279;-70
2023/05/01 10:03:42;;;;;;;4.03;0.70;;;;;;;20.13;18.23;101478.84;5011764;28;20052;-70
2023/05/01 10:06:11;;;;;;;3.80;1.00;;;;;;;20.79;17.92;101473.22;5018162;28;20049;-70
2023/05/01 10:08:47;;;;;;;3.55;0.82;;;;;;;20.46;18.50;101474.78;5014490;28;20618;-70
2023/05/01 10:11:13;;;;;;;3.25;0.90;;;;;;;20.04;18.35;101474.22;5017146;28;20439;-70
2023/05/01 10:13:38;;;;;;;2.30;0.70;;;;;;;18.40;19.48;101478.09;5013576;28;20283;-70
2023/05/01 10:16:06;;;;;;;3.67;0.50;;;;;;;19.45;19.38;101479.19;5003172;28;20439;-70
2023/05/01 10:18:35;;;;;;;7.20;1.00;;;;;;;20.04;19.12;101470.72;5015223;28;20063;-70
2023/05/01 10:21:03;;;;;;;3.35;0.57;;;;;;;20.45;17.51;101461.59;5020188;28;20105;-70
2023/05/01 10:23:29;;;;;;;3.25;1.25;;;;;;;20.03;19.19;101461.03;5017531;28;20049;-70
2023/05/01 10:25:57;;;;;;;3.60;0.50;;;;;;;20.18;20.55;101467.06;5025249;28;20029;-69
2023/05/01 10:28:24;;;;;;;2.47;0.80;;;;;;;20.38;18.97;101469.16;5020365;28;20091;-70
2023/05/01 10:30:50;;;;;;;3.15;0.93;;;;;;;20.58;19.44;101461.56;5015659;28;21709;-70
2023/05/01 10:33:16;;;;;;;6.22;1.30;;;;;;;21.09;21.94;101477.25;5021672;28;20693;-69
2023/05/01 10:35:49;;;;;;;2.83;0.68;;;;;;;20.56;18.68;101459.00;5018098;28;20571;-70
2023/05/01 10:38:30;;;;;;;1.63;0.55;;;;;;;21.20;17.87;101460.47;5013813;28;20067;-70
2023/05/01 10:40:55;;;;;;;6.25;0.80;;;;;;;20.88;19.10;101458.44;5019559;28;20041;-70
2023/05/01 10:43:26;;;;;;;2.25;1.15;;;;;;;20.72;20.31;101456.06;5020989;28;20146;-71
2023/05/01 10:46:11;;;;;;;3.90;0.75;;;;;;;20.04;19.48;101455.63;5017161;28;20045;-70
2023/05/01 10:48:36;;;;;;;3.30;0.90;;;;;;;21.62;18.57;101448.38;5017140;28;20143;-71
2023/05/01 10:51:24;;;;;;;2.17;0.40;;;;;;;20.70;15.95;101437.56;5020794;28;20749;-70
2023/05/01 10:54:12;;;;;;;2.17;0.73;;;;;;;20.24;17.89;101437.44;5011557;28;20044;-70
2023/05/01 10:56:37;;;;;;;3.28;0.47;;;;;;;20.67;16.76;101435.16;5018805;28;20054;-70
2023/05/01 10:59:04;;;;;;;1.27;0.32;;;;;;;20.68;18.34;101436.84;5008736;28;20055;-71
2023/05/01 11:01:39;;;;;;;2.08;0.73;;;;;;;20.50;16.74;101436.38;5021257;28;20037;-70
2023/05/01 11:04:26;;;;;;;4.45;0.63;;;;;;;19.93;18.31;101431.69;5023505;28;20041;-70
2023/05/01 11:07:01;;;;;;;3.67;1.30;;;;;;;20.50;17.48;101432.91;5012091;28;20115;-70
2023/05/01 11:09:38;;;;;;;4.20;0.68;;;;;;;21.53;17.59;101433.13;5021212;28;20033;-71
2023/05/01 11:12:05;;;;;;;2.15;0.43;;;;;;;21.55;17.65;101426.72;5024483;28;20032;-70
2023/05/01 11:14:52;;;;;;;3.10;0.63;;;;;;;21.50;18.25;101423.59;5020154;28;20052;-71
2023/05/01 11:17:40;;;;;;;3.95;0.68;;;;;;;21.53;18.11;101427.81;5021886;28;20049;-71
2023/05/01 11:20:07;;;;;;;3.78;0.77;;;;;;;21.49;18.06;101429.00;5023179;28;20087;-70
2023/05/01 11:22:34;;;;;;;2.83;0.80;;;;;;;21.29;18.21;101431.41;5013411;28;20134;-71
2023/05/01 11:25:04;;;;;;;3.70;0.60;;;;;;;21.45;18.93;101436.38;4994806;28;20517;-70
2023/05/01 11:27:30;;;;;;;3.05;0.77;;;;;;;22.04;17.71;101421.97;5002805;28;20056;-70
2023/05/01 11:29:59;;;;;;;3.80;0.65;;;;;;;22.72;15.26;101420.03;4999894;28;20037;-70
2023/05/01 11:32:28;;;;;;;2.75;0.50;;;;;;;21.90;16.82;101411.63;4999583;28;20045;-71